createdAt,value
2022-09-11T00:00:38.956Z,82.92
2022-09-11T00:01:40.012Z,83.40
2022-09-11T00:02:39.023Z,83.13
2022-09-11T00:03:38.970Z,83.71
2022-09-11T00:04:40.346Z,84.44
2022-09-11T00:05:50.453Z,84.56
2022-09-11T00:06:41.351Z,83.25
2022-09-11T00:07:40.586Z,84.17
2022-09-11T00:08:38.987Z,83.20
2022-09-11T00:09:38.913Z,83.91
2022-09-11T00:10:38.900Z,83.91
2022-09-11T00:11:38.972Z,85.00
2022-09-11T00:12:38.860Z,86.48
2022-09-11T00:13:40.369Z,85.99
2022-09-11T00:14:38.906Z,84.06
2022-09-11T00:15:39.326Z,83.72
2022-09-11T00:16:39.539Z,84.16
2022-09-11T00:17:38.988Z,83.78
2022-09-11T00:18:39.020Z,85.16
2022-09-11T00:19:38.833Z,85.28
2022-09-11T00:20:38.801Z,83.56
2022-09-11T00:21:38.790Z,84.92
2022-09-11T00:22:38.821Z,84.89
2022-09-11T00:23:38.889Z,84.31
2022-09-11T00:24:38.808Z,84.35
2022-09-11T00:25:39.773Z,84.18
2022-09-11T00:26:38.845Z,83.81
2022-09-11T00:27:38.774Z,84.26
2022-09-11T00:28:38.736Z,85.32
2022-09-11T00:29:38.863Z,86.86
2022-09-11T00:30:38.721Z,86.24
2022-09-11T00:31:38.813Z,84.84
2022-09-11T00:32:38.715Z,83.70
2022-09-11T00:33:38.795Z,83.51
2022-09-11T00:34:38.716Z,81.83
2022-09-11T00:35:38.680Z,85.31
2022-09-11T00:36:38.733Z,84.90
2022-09-11T00:37:38.672Z,85.58
2022-09-11T00:38:38.898Z,83.51
2022-09-11T00:39:39.545Z,85.47
2022-09-11T00:40:38.749Z,84.95
2022-09-11T00:41:38.690Z,83.69
2022-09-11T00:42:38.804Z,82.53
2022-09-11T00:43:38.632Z,83.58
2022-09-11T00:44:38.613Z,82.99
2022-09-11T00:45:38.642Z,84.12
2022-09-11T00:46:38.598Z,84.53
2022-09-11T00:47:38.617Z,83.77
2022-09-11T00:48:38.589Z,81.53
2022-09-11T00:49:38.580Z,81.07
2022-09-11T00:50:38.628Z,80.68
2022-09-11T00:51:38.627Z,79.85
2022-09-11T00:52:38.555Z,80.72
2022-09-11T00:53:38.620Z,80.68
2022-09-11T00:54:38.539Z,81.94
2022-09-11T00:55:38.591Z,83.03
2022-09-11T00:56:38.526Z,81.62
2022-09-11T00:57:38.513Z,79.24
2022-09-11T00:58:38.515Z,71.16
2022-09-11T00:59:38.531Z,74.35
2022-09-11T01:00:38.571Z,75.89
2022-09-11T01:01:38.529Z,72.69
2022-09-11T01:02:38.579Z,76.40
2022-09-11T01:03:38.532Z,73.26
2022-09-11T01:04:38.483Z,72.48
2022-09-11T01:05:38.481Z,69.52
2022-09-11T01:06:38.446Z,62.80
2022-09-11T01:07:38.441Z,60.51
2022-09-11T01:08:38.655Z,61.66
2022-09-11T01:09:39.425Z,62.57
2022-09-11T01:10:38.448Z,60.82
2022-09-11T01:11:38.408Z,65.83
2022-09-11T01:12:38.399Z,64.51
2022-09-11T01:13:38.527Z,64.32
2022-09-11T01:14:38.408Z,61.46
2022-09-11T01:15:38.432Z,63.78
2022-09-11T01:16:38.427Z,59.65
2022-09-11T01:17:38.357Z,64.74
2022-09-11T01:18:38.349Z,64.61
2022-09-11T01:19:38.365Z,64.43
2022-09-11T01:20:38.337Z,65.90
2022-09-11T01:21:38.391Z,68.16
2022-09-11T01:22:38.320Z,70.39
2022-09-11T01:23:38.337Z,70.41
2022-09-11T01:24:38.520Z,72.80
2022-09-11T01:25:38.319Z,75.00
2022-09-11T01:26:38.287Z,73.41
2022-09-11T01:27:38.277Z,73.17
2022-09-11T01:28:38.271Z,71.27
2022-09-11T01:29:38.285Z,69.21
2022-09-11T01:30:38.256Z,64.16
2022-09-11T01:31:38.306Z,64.21
2022-09-11T01:32:38.338Z,60.11
2022-09-11T01:33:38.250Z,59.85
2022-09-11T01:34:38.401Z,59.69
2022-09-11T01:35:38.344Z,60.56
2022-09-11T01:36:38.205Z,61.92
2022-09-11T01:37:38.199Z,64.31
2022-09-11T01:38:38.193Z,57.81
2022-09-11T01:39:38.318Z,59.29
2022-09-11T01:40:38.176Z,59.78
2022-09-11T01:41:38.164Z,61.32
2022-09-11T01:42:38.174Z,63.18
2022-09-11T01:43:38.199Z,62.21
2022-09-11T01:44:38.158Z,63.24
2022-09-11T01:45:39.160Z,60.01
2022-09-11T01:46:38.125Z,62.83
2022-09-11T01:47:38.115Z,60.33
2022-09-11T01:48:38.114Z,63.07
2022-09-11T01:49:38.144Z,61.14
2022-09-11T01:50:38.111Z,58.75
2022-09-11T01:51:38.125Z,60.87
2022-09-11T01:52:38.083Z,61.92
2022-09-11T01:53:38.070Z,60.23
2022-09-11T01:54:38.088Z,58.92
2022-09-11T01:55:38.052Z,63.92
2022-09-11T01:56:39.039Z,61.78
2022-09-11T01:57:39.042Z,62.33
2022-09-11T01:58:38.039Z,57.89
2022-09-11T01:59:38.031Z,61.33
2022-09-11T02:00:38.070Z,61.69
2022-09-11T02:01:38.037Z,63.09
2022-09-11T02:02:38.007Z,59.30
2022-09-11T02:03:38.067Z,54.88
2022-09-11T02:04:38.015Z,59.69
2022-09-11T02:05:37.971Z,59.12
2022-09-11T02:06:38.974Z,59.53
2022-09-11T02:07:37.972Z,62.50
2022-09-11T02:08:37.964Z,58.81
2022-09-11T02:09:38.015Z,59.66
2022-09-11T02:10:37.946Z,60.94
2022-09-11T02:11:37.942Z,61.87
2022-09-11T02:12:37.930Z,64.09
2022-09-11T02:13:37.926Z,62.80
2022-09-11T02:14:37.943Z,63.83
2022-09-11T02:15:37.909Z,67.83
2022-09-11T02:16:38.205Z,65.41
2022-09-11T02:17:37.911Z,62.02
2022-09-11T02:18:37.889Z,62.38
2022-09-11T02:19:37.899Z,65.00
2022-09-11T02:20:37.910Z,63.70
2022-09-11T02:21:37.863Z,61.43
2022-09-11T02:22:37.862Z,59.45
2022-09-11T02:23:37.901Z,61.50
2022-09-11T02:24:37.870Z,61.70
2022-09-11T02:25:37.883Z,57.19
2022-09-11T02:26:37.823Z,59.24
2022-09-11T02:27:37.841Z,60.18
2022-09-11T02:28:37.806Z,61.78
2022-09-11T02:29:37.818Z,65.33
2022-09-11T02:30:37.811Z,66.94
2022-09-11T02:31:37.801Z,64.98
2022-09-11T02:32:37.773Z,64.35
2022-09-11T02:33:37.908Z,65.34
2022-09-11T02:34:37.792Z,62.29
2022-09-11T02:35:37.757Z,62.62
2022-09-11T02:36:37.745Z,62.78
2022-09-11T02:37:37.758Z,60.46
2022-09-11T02:38:37.729Z,56.37
2022-09-11T02:39:37.812Z,55.35
2022-09-11T02:40:37.749Z,54.36
2022-09-11T02:41:37.705Z,54.16
2022-09-11T02:42:37.703Z,53.83
2022-09-11T02:43:37.691Z,54.40
2022-09-11T02:44:37.719Z,55.56
2022-09-11T02:45:37.766Z,54.21
2022-09-11T02:46:37.673Z,54.91
2022-09-11T02:47:37.664Z,56.16
2022-09-11T02:48:37.679Z,57.06
2022-09-11T02:49:37.651Z,58.19
2022-09-11T02:50:38.940Z,55.55
2022-09-11T02:51:37.633Z,56.49
2022-09-11T02:52:37.635Z,56.10
2022-09-11T02:53:37.665Z,54.89
2022-09-11T02:54:37.612Z,59.24
2022-09-11T02:55:37.625Z,51.14
2022-09-11T02:56:37.595Z,55.47
2022-09-11T02:57:37.584Z,57.87
2022-09-11T02:58:37.580Z,54.15
2022-09-11T03:00:09.603Z,62.09
2022-09-11T03:00:37.617Z,56.20
2022-09-11T03:01:37.554Z,56.28
2022-09-11T03:02:37.550Z,53.66
2022-09-11T03:03:37.571Z,55.89
2022-09-11T03:04:37.533Z,54.90
2022-09-11T03:05:37.553Z,54.31
2022-09-11T03:06:37.519Z,54.09
2022-09-11T03:07:37.541Z,50.03
2022-09-11T03:08:37.505Z,55.94
2022-09-11T03:09:37.508Z,57.74
2022-09-11T03:10:37.514Z,55.03
2022-09-11T03:11:37.486Z,55.76
2022-09-11T03:12:37.476Z,54.95
2022-09-11T03:13:37.464Z,55.51
2022-09-11T03:14:37.451Z,54.01
2022-09-11T03:15:37.473Z,57.29
2022-09-11T03:16:37.456Z,57.20
2022-09-11T03:17:37.430Z,55.50
2022-09-11T03:18:37.423Z,59.82
2022-09-11T03:19:37.431Z,54.90
2022-09-11T03:20:37.431Z,53.32
2022-09-11T03:21:37.406Z,57.49
2022-09-11T03:22:37.400Z,50.32
2022-09-11T03:23:37.389Z,53.81
2022-09-11T03:24:37.377Z,57.13
2022-09-11T03:25:37.398Z,53.60
2022-09-11T03:26:37.358Z,54.36
2022-09-11T03:27:37.351Z,53.26
2022-09-11T03:28:37.338Z,51.58
2022-09-11T03:29:37.343Z,54.42
2022-09-11T03:30:37.423Z,56.23
2022-09-11T03:31:39.196Z,51.15
2022-09-11T03:32:38.316Z,57.05
2022-09-11T03:33:37.308Z,55.84
2022-09-11T03:34:37.303Z,55.08
2022-09-11T03:35:37.319Z,57.19
2022-09-11T03:36:37.283Z,54.32
2022-09-11T03:37:37.271Z,52.37
2022-09-11T03:38:37.267Z,54.01
2022-09-11T03:39:37.284Z,53.04
2022-09-11T03:40:37.270Z,51.86
2022-09-11T03:41:37.240Z,53.74
2022-09-11T03:42:37.232Z,51.00
2022-09-11T03:43:37.225Z,48.81
2022-09-11T03:44:37.302Z,50.82
2022-09-11T03:45:37.304Z,51.96
2022-09-11T03:46:37.198Z,53.63
2022-09-11T03:47:37.192Z,54.10
2022-09-11T03:48:37.188Z,53.89
2022-09-11T03:49:37.176Z,50.53
2022-09-11T03:50:37.201Z,54.91
2022-09-11T03:51:37.162Z,53.67
2022-09-11T03:52:37.156Z,56.34
2022-09-11T03:53:37.147Z,54.83
2022-09-11T03:54:37.144Z,54.54
2022-09-11T03:55:37.158Z,55.48
2022-09-11T03:56:37.129Z,54.66
2022-09-11T03:57:37.141Z,52.69
2022-09-11T03:58:37.112Z,54.57
2022-09-11T03:59:38.167Z,52.54
2022-09-11T04:00:37.122Z,49.77
2022-09-11T04:01:37.123Z,53.07
2022-09-11T04:02:37.090Z,58.09
2022-09-11T04:03:37.100Z,53.65
2022-09-11T04:04:37.068Z,50.95
2022-09-11T04:05:37.165Z,44.12
2022-09-11T04:06:37.048Z,45.05
2022-09-11T04:07:37.042Z,50.71
2022-09-11T04:08:37.035Z,51.88
2022-09-11T04:09:37.035Z,61.07
2022-09-11T04:10:37.042Z,50.74
2022-09-11T04:11:37.592Z,47.00
2022-09-11T04:12:38.001Z,45.81
2022-09-11T04:13:36.997Z,49.71
2022-09-11T04:14:36.981Z,53.39
2022-09-11T04:15:37.002Z,53.11
2022-09-11T04:16:36.997Z,51.25
2022-09-11T04:17:36.957Z,49.52
2022-09-11T04:18:36.957Z,49.60
2022-09-11T04:19:36.960Z,52.80
2022-09-11T04:20:36.987Z,61.33
2022-09-11T04:21:36.927Z,54.23
2022-09-11T04:22:36.925Z,47.35
2022-09-11T04:23:36.911Z,51.19
2022-09-11T04:24:36.905Z,48.30
2022-09-11T04:25:36.894Z,48.80
2022-09-11T04:26:36.920Z,49.81
2022-09-11T04:27:36.882Z,57.59
2022-09-11T04:28:36.871Z,56.52
2022-09-11T04:29:36.862Z,51.05
2022-09-11T04:30:36.856Z,60.38
2022-09-11T04:31:36.925Z,58.42
2022-09-11T04:32:36.837Z,48.54
2022-09-11T04:33:36.830Z,49.68
2022-09-11T04:34:36.824Z,47.49
2022-09-11T04:35:36.813Z,50.99
2022-09-11T04:36:36.829Z,51.47
2022-09-11T04:37:36.798Z,61.88
2022-09-11T04:38:36.796Z,51.13
2022-09-11T04:39:36.809Z,50.78
2022-09-11T04:40:36.775Z,49.11
2022-09-11T04:41:36.793Z,58.16
2022-09-11T04:42:36.759Z,50.25
2022-09-11T04:43:36.752Z,52.53
2022-09-11T04:44:36.743Z,56.09
2022-09-11T04:45:36.794Z,49.83
2022-09-11T04:46:36.752Z,50.23
2022-09-11T04:47:36.719Z,43.18
2022-09-11T04:48:36.718Z,45.57
2022-09-11T04:49:36.702Z,49.78
2022-09-11T04:50:36.698Z,44.91
2022-09-11T04:51:36.730Z,42.72
2022-09-11T04:52:36.688Z,52.81
2022-09-11T04:53:36.672Z,53.24
2022-09-11T04:54:36.669Z,56.81
2022-09-11T04:55:36.685Z,41.07
2022-09-11T04:56:36.654Z,50.28
2022-09-11T04:57:36.643Z,44.09
2022-09-11T04:58:36.637Z,53.20
2022-09-11T04:59:36.626Z,52.22
2022-09-11T05:00:36.643Z,59.35
2022-09-11T05:01:36.614Z,49.34
2022-09-11T05:02:36.605Z,55.61
2022-09-11T05:03:36.600Z,50.24
2022-09-11T05:04:36.590Z,54.11
2022-09-11T05:05:36.740Z,53.82
2022-09-11T05:06:36.573Z,45.54
2022-09-11T05:07:36.579Z,50.28
2022-09-11T05:08:36.577Z,46.58
2022-09-11T05:09:36.553Z,48.07
2022-09-11T05:10:36.576Z,53.91
2022-09-11T05:11:36.541Z,39.54
2022-09-11T05:12:36.530Z,39.38
2022-09-11T05:13:36.811Z,53.13
2022-09-11T05:14:36.514Z,48.97
2022-09-11T05:15:36.533Z,45.67
2022-09-11T05:16:36.539Z,50.63
2022-09-11T05:17:36.509Z,44.10
2022-09-11T05:18:36.480Z,39.82
2022-09-11T05:19:36.471Z,48.52
2022-09-11T05:20:36.464Z,45.96
2022-09-11T05:21:36.485Z,53.51
2022-09-11T05:22:36.451Z,51.41
2022-09-11T05:23:36.436Z,51.36
2022-09-11T05:24:36.433Z,59.13
2022-09-11T05:25:36.423Z,48.55
2022-09-11T05:26:36.440Z,49.84
2022-09-11T05:27:36.407Z,43.74
2022-09-11T05:28:36.538Z,39.19
2022-09-11T05:29:36.442Z,48.43
2022-09-11T05:30:36.400Z,54.01
2022-09-11T05:31:36.426Z,52.08
2022-09-11T05:32:36.498Z,51.90
2022-09-11T05:33:36.469Z,43.57
2022-09-11T05:34:36.360Z,56.58
2022-09-11T05:35:36.401Z,45.11
2022-09-11T05:36:36.360Z,45.43
2022-09-11T05:37:36.329Z,50.62
2022-09-11T05:38:36.321Z,53.30
2022-09-11T05:39:36.374Z,46.13
2022-09-11T05:40:36.305Z,44.70
2022-09-11T05:41:36.330Z,43.68
2022-09-11T05:42:36.302Z,41.83
2022-09-11T05:43:36.293Z,50.29
2022-09-11T05:44:36.282Z,49.80
2022-09-11T05:45:36.332Z,53.33
2022-09-11T05:46:36.282Z,49.17
2022-09-11T05:47:36.252Z,52.13
2022-09-11T05:48:36.245Z,53.42
2022-09-11T05:49:36.237Z,47.21
2022-09-11T05:50:36.228Z,49.87
2022-09-11T05:51:36.241Z,48.61
2022-09-11T05:52:36.209Z,46.46
2022-09-11T05:53:36.203Z,51.78
2022-09-11T05:54:36.199Z,45.54
2022-09-11T05:55:36.186Z,45.80
2022-09-11T05:56:36.201Z,55.92
2022-09-11T05:57:36.172Z,41.50
2022-09-11T05:58:36.163Z,45.26
2022-09-11T05:59:36.154Z,49.78
2022-09-11T06:00:36.153Z,52.16
2022-09-11T06:01:36.255Z,51.10
2022-09-11T06:02:36.130Z,41.24
2022-09-11T06:03:36.128Z,48.13
2022-09-11T06:04:36.122Z,55.75
2022-09-11T06:05:36.115Z,57.17
2022-09-11T06:06:36.130Z,56.11
2022-09-11T06:07:36.116Z,56.79
2022-09-11T06:08:36.098Z,53.92
2022-09-11T06:09:36.084Z,58.08
2022-09-11T06:10:36.075Z,51.92
2022-09-11T06:11:36.091Z,52.84
2022-09-11T06:12:36.052Z,54.50
2022-09-11T06:13:36.047Z,57.45
2022-09-11T06:14:36.040Z,45.09
2022-09-11T06:15:46.752Z,53.40
2022-09-11T06:16:38.065Z,58.10
2022-09-11T06:17:36.015Z,54.69
2022-09-11T06:18:36.012Z,57.77
2022-09-11T06:19:35.998Z,53.05
2022-09-11T06:20:35.992Z,51.03
2022-09-11T06:21:36.009Z,46.19
2022-09-11T06:22:35.986Z,57.59
2022-09-11T06:23:35.968Z,57.08
2022-09-11T06:24:35.959Z,44.73
2022-09-11T06:25:35.958Z,49.79
2022-09-11T06:26:35.971Z,51.15
2022-09-11T06:27:35.942Z,52.08
2022-09-11T06:28:35.946Z,57.18
2022-09-11T06:29:35.919Z,56.01
2022-09-11T06:30:35.956Z,60.05
2022-09-11T06:31:35.931Z,55.01
2022-09-11T06:32:35.902Z,49.19
2022-09-11T06:33:35.892Z,54.05
2022-09-11T06:34:35.886Z,57.38
2022-09-11T06:35:35.890Z,52.12
2022-09-11T06:36:35.896Z,56.24
2022-09-11T06:37:35.864Z,58.42
2022-09-11T06:38:35.852Z,58.67
2022-09-11T06:39:35.959Z,59.88
2022-09-11T06:40:35.838Z,56.07
2022-09-11T06:41:35.854Z,56.15
2022-09-11T06:42:35.821Z,55.31
2022-09-11T06:43:35.815Z,48.79
2022-09-11T06:44:35.811Z,59.13
2022-09-11T06:45:35.811Z,60.68
2022-09-11T06:46:35.820Z,55.28
2022-09-11T06:47:35.780Z,56.92
2022-09-11T06:48:35.773Z,54.58
2022-09-11T06:49:35.773Z,52.60
2022-09-11T06:50:36.962Z,55.74
2022-09-11T06:51:36.773Z,56.59
2022-09-11T06:52:35.758Z,56.05
2022-09-11T06:53:35.732Z,58.99
2022-09-11T06:54:35.722Z,57.60
2022-09-11T06:55:35.717Z,58.48
2022-09-11T06:56:35.734Z,57.94
2022-09-11T06:57:39.915Z,58.36
2022-09-11T06:58:37.692Z,51.96
2022-09-11T06:59:35.684Z,58.21
2022-09-11T07:00:35.674Z,59.41
2022-09-11T07:01:35.810Z,56.62
2022-09-11T07:02:35.664Z,60.46
2022-09-11T07:03:35.648Z,57.46
2022-09-11T07:04:35.641Z,58.48
2022-09-11T07:05:35.652Z,59.39
2022-09-11T07:06:35.657Z,58.83
2022-09-11T07:07:35.633Z,59.41
2022-09-11T07:08:35.613Z,54.33
2022-09-11T07:09:35.605Z,52.46
2022-09-11T07:10:35.597Z,56.37
2022-09-11T07:11:35.612Z,65.47
2022-09-11T07:12:35.589Z,60.84
2022-09-11T07:13:37.561Z,62.54
2022-09-11T07:14:36.573Z,59.14
2022-09-11T07:15:35.560Z,64.12
2022-09-11T07:16:35.658Z,56.99
2022-09-11T07:17:35.549Z,57.34
2022-09-11T07:18:35.540Z,62.66
2022-09-11T07:19:35.536Z,58.25
2022-09-11T07:20:35.524Z,57.98
2022-09-11T07:21:35.547Z,59.14
2022-09-11T07:22:35.510Z,56.55
2022-09-11T07:23:35.501Z,58.32
2022-09-11T07:24:35.492Z,57.51
2022-09-11T07:25:35.491Z,54.64
2022-09-11T07:26:35.516Z,59.96
2022-09-11T07:27:35.476Z,57.18
2022-09-11T07:28:35.462Z,56.60
2022-09-11T07:29:35.454Z,55.42
2022-09-11T07:30:35.500Z,54.52
2022-09-11T07:31:35.515Z,60.31
2022-09-11T07:32:35.487Z,58.42
2022-09-11T07:33:35.445Z,58.99
2022-09-11T07:34:35.416Z,59.22
2022-09-11T07:35:35.406Z,62.80
2022-09-11T07:36:35.433Z,60.44
2022-09-11T07:37:35.399Z,60.29
2022-09-11T07:38:35.384Z,59.20
2022-09-11T07:39:35.405Z,60.52
2022-09-11T07:40:35.368Z,59.74
2022-09-11T07:41:35.387Z,60.09
2022-09-11T07:42:35.358Z,59.20
2022-09-11T07:43:35.345Z,60.40
2022-09-11T07:44:35.341Z,60.74
2022-09-11T07:45:35.400Z,58.66
2022-09-11T07:46:35.330Z,62.06
2022-09-11T07:47:35.337Z,66.08
2022-09-11T07:48:35.307Z,62.69
2022-09-11T07:49:35.305Z,61.99
2022-09-11T07:50:35.293Z,57.49
2022-09-11T07:51:35.346Z,63.38
2022-09-11T07:52:35.301Z,62.63
2022-09-11T07:53:35.336Z,62.90
2022-09-11T07:54:35.264Z,65.20
2022-09-11T07:55:35.263Z,64.45
2022-09-11T07:56:35.252Z,59.68
2022-09-11T07:57:35.264Z,62.49
2022-09-11T07:58:35.235Z,65.14
2022-09-11T07:59:35.224Z,63.97
2022-09-11T08:00:37.097Z,66.27
2022-09-11T08:01:36.256Z,59.93
2022-09-11T08:02:35.281Z,62.84
2022-09-11T08:03:35.195Z,63.75
2022-09-11T08:04:35.187Z,63.05
2022-09-11T08:05:35.199Z,63.98
2022-09-11T08:06:35.177Z,64.30
2022-09-11T08:07:35.188Z,62.77
2022-09-11T08:08:35.154Z,65.09
2022-09-11T08:09:35.147Z,65.41
2022-09-11T08:10:35.137Z,61.90
2022-09-11T08:11:35.149Z,62.33
2022-09-11T08:12:35.153Z,65.06
2022-09-11T08:13:35.117Z,62.33
2022-09-11T08:14:35.133Z,67.37
2022-09-11T08:15:35.100Z,66.46
2022-09-11T08:16:35.150Z,64.58
2022-09-11T08:17:35.108Z,59.81
2022-09-11T08:18:35.078Z,60.72
2022-09-11T08:19:35.069Z,59.84
2022-09-11T08:20:35.053Z,59.65
2022-09-11T08:21:36.123Z,60.71
2022-09-11T08:22:35.074Z,62.69
2022-09-11T08:23:35.035Z,64.66
2022-09-11T08:24:35.032Z,63.00
2022-09-11T08:25:35.023Z,66.10
2022-09-11T08:26:35.011Z,61.99
2022-09-11T08:27:35.028Z,63.39
2022-09-11T08:28:34.998Z,62.10
2022-09-11T08:29:35.027Z,58.64
2022-09-11T08:30:35.003Z,63.77
2022-09-11T08:31:35.109Z,69.37
2022-09-11T08:32:35.089Z,67.34
2022-09-11T08:33:34.964Z,68.73
2022-09-11T08:34:34.960Z,61.92
2022-09-11T08:35:34.955Z,67.44
2022-09-11T08:36:34.941Z,59.93
2022-09-11T08:37:34.978Z,64.18
2022-09-11T08:38:34.934Z,62.78
2022-09-11T08:39:35.074Z,61.49
2022-09-11T08:40:34.920Z,59.64
2022-09-11T08:41:34.914Z,59.19
2022-09-11T08:42:34.923Z,58.11
2022-09-11T08:43:34.893Z,59.16
2022-09-11T08:44:38.535Z,60.32
2022-09-11T08:45:35.935Z,61.94
2022-09-11T08:46:34.881Z,60.49
2022-09-11T08:47:34.917Z,63.11
2022-09-11T08:48:34.893Z,60.59
2022-09-11T08:49:34.873Z,59.57
2022-09-11T08:50:34.835Z,58.58
2022-09-11T08:51:34.826Z,59.92
2022-09-11T08:52:34.850Z,62.99
2022-09-11T08:53:34.847Z,63.44
2022-09-11T08:54:34.802Z,61.56
2022-09-11T08:55:34.798Z,63.14
2022-09-11T08:56:34.790Z,61.75
2022-09-11T08:57:34.823Z,61.54
2022-09-11T08:58:34.777Z,61.09
2022-09-11T08:59:34.764Z,64.64
2022-09-11T09:00:34.805Z,64.24
2022-09-11T09:01:34.831Z,70.60
2022-09-11T09:02:34.772Z,64.75
2022-09-11T09:03:34.738Z,71.90
2022-09-11T09:04:34.729Z,67.89
2022-09-11T09:05:34.751Z,59.42
2022-09-11T09:06:34.714Z,60.98
2022-09-11T09:07:34.739Z,61.31
2022-09-11T09:08:34.708Z,62.10
2022-09-11T09:09:35.323Z,61.63
2022-09-11T09:10:35.690Z,63.11
2022-09-11T09:11:34.700Z,61.90
2022-09-11T09:12:34.700Z,60.59
2022-09-11T09:13:34.656Z,63.36
2022-09-11T09:14:34.680Z,62.18
2022-09-11T09:15:34.640Z,63.06
2022-09-11T09:16:34.677Z,62.33
2022-09-11T09:17:34.759Z,63.70
2022-09-11T09:18:34.615Z,63.25
2022-09-11T09:19:34.616Z,62.87
2022-09-11T09:20:34.644Z,64.52
2022-09-11T09:21:34.774Z,62.94
2022-09-11T09:22:34.616Z,58.53
2022-09-11T09:23:34.583Z,64.09
2022-09-11T09:24:34.616Z,64.03
2022-09-11T09:25:34.644Z,62.20
2022-09-11T09:26:38.374Z,63.74
2022-09-11T09:27:35.572Z,63.50
2022-09-11T09:28:34.548Z,63.06
2022-09-11T09:29:34.537Z,62.38
2022-09-11T09:30:34.531Z,64.26
2022-09-11T09:31:34.527Z,64.48
2022-09-11T09:32:34.541Z,62.42
2022-09-11T09:33:34.521Z,64.00
2022-09-11T09:34:34.501Z,63.13
2022-09-11T09:35:34.489Z,60.84
2022-09-11T09:36:34.485Z,60.50
2022-09-11T09:37:34.476Z,60.69
2022-09-11T09:38:34.513Z,63.33
2022-09-11T09:39:34.459Z,62.55
2022-09-11T09:40:34.451Z,62.25
2022-09-11T09:41:34.451Z,61.32
2022-09-11T09:42:34.463Z,62.09
2022-09-11T09:43:34.494Z,63.49
2022-09-11T09:44:34.454Z,59.88
2022-09-11T09:45:34.470Z,59.01
2022-09-11T09:46:34.407Z,62.29
2022-09-11T09:47:34.394Z,60.34
2022-09-11T09:48:34.423Z,62.66
2022-09-11T09:49:34.382Z,62.30
2022-09-11T09:50:34.375Z,60.12
2022-09-11T09:51:34.365Z,60.54
2022-09-11T09:52:34.387Z,60.01
2022-09-11T09:53:34.350Z,59.82
2022-09-11T09:54:34.345Z,59.41
2022-09-11T09:55:34.340Z,58.56
2022-09-11T09:56:34.355Z,60.00
2022-09-11T09:57:34.325Z,59.41
2022-09-11T09:58:34.485Z,57.89
2022-09-11T09:59:34.309Z,61.36
2022-09-11T10:00:34.296Z,63.16
2022-09-11T10:01:34.314Z,60.05
2022-09-11T10:02:34.317Z,61.68
2022-09-11T10:03:34.306Z,58.74
2022-09-11T10:04:34.271Z,59.66
2022-09-11T10:05:34.262Z,59.04
2022-09-11T10:06:34.260Z,57.79
2022-09-11T10:07:34.260Z,62.39
2022-09-11T10:08:34.301Z,58.78
2022-09-11T10:09:34.237Z,58.99
2022-09-11T10:10:34.212Z,59.17
2022-09-11T10:11:35.210Z,60.44
2022-09-11T10:12:34.205Z,66.04
2022-09-11T10:13:34.232Z,72.54
2022-09-11T10:14:51.166Z,72.48
2022-09-11T10:15:36.220Z,69.76
2022-09-11T10:16:34.176Z,61.43
2022-09-11T10:17:34.171Z,59.75
2022-09-11T10:18:34.301Z,60.61
2022-09-11T10:19:34.192Z,59.04
2022-09-11T10:20:34.235Z,60.61
2022-09-11T10:21:34.152Z,62.07
2022-09-11T10:22:34.130Z,59.80
2022-09-11T10:23:34.145Z,59.78
2022-09-11T10:24:34.112Z,62.34
2022-09-11T10:25:34.118Z,61.47
2022-09-11T10:26:34.112Z,66.92
2022-09-11T10:27:34.170Z,68.17
2022-09-11T10:28:34.231Z,68.41
2022-09-11T10:29:34.130Z,66.11
2022-09-11T10:30:34.092Z,59.01
2022-09-11T10:31:34.150Z,64.31
2022-09-11T10:32:34.055Z,65.75
2022-09-11T10:33:34.181Z,68.21
2022-09-11T10:34:34.037Z,66.09
2022-09-11T10:35:34.033Z,62.03
2022-09-11T10:36:34.075Z,68.37
2022-09-11T10:37:34.013Z,68.49
2022-09-11T10:38:36.949Z,66.75
2022-09-11T10:39:35.176Z,61.89
2022-09-11T10:40:34.075Z,63.99
2022-09-11T10:41:34.053Z,67.99
2022-09-11T10:42:33.986Z,70.44
2022-09-11T10:43:34.004Z,65.64
2022-09-11T10:44:34.345Z,61.84
2022-09-11T10:45:34.021Z,68.81
2022-09-11T10:46:41.134Z,70.59
2022-09-11T10:47:33.940Z,68.98
2022-09-11T10:48:33.969Z,68.87
2022-09-11T10:49:33.977Z,63.59
2022-09-11T10:50:33.990Z,62.33
2022-09-11T10:51:33.928Z,69.58
2022-09-11T10:52:33.917Z,68.75
2022-09-11T10:53:33.907Z,68.02
2022-09-11T10:54:33.929Z,64.92
2022-09-11T10:55:33.882Z,62.07
2022-09-11T10:56:33.916Z,64.44
2022-09-11T10:57:33.909Z,65.36
2022-09-11T10:58:33.972Z,64.68
2022-09-11T10:59:33.881Z,69.09
2022-09-11T11:00:33.836Z,68.89
2022-09-11T11:01:33.875Z,69.08
2022-09-11T11:02:33.831Z,60.50
2022-09-11T11:03:33.913Z,61.01
2022-09-11T11:04:33.827Z,66.44
2022-09-11T11:05:33.839Z,68.53
2022-09-11T11:06:33.813Z,71.39
2022-09-11T11:07:33.779Z,63.69
2022-09-11T11:08:33.916Z,63.62
2022-09-11T11:09:33.839Z,64.53
2022-09-11T11:10:33.777Z,65.19
2022-09-11T11:11:33.800Z,68.98
2022-09-11T11:12:33.746Z,71.25
2022-09-11T11:13:33.764Z,70.21
2022-09-11T11:14:34.467Z,68.87
2022-09-11T11:15:33.770Z,67.94
2022-09-11T11:16:33.726Z,70.41
2022-09-11T11:17:33.780Z,67.42
2022-09-11T11:18:34.852Z,67.08
2022-09-11T11:19:33.790Z,67.37
2022-09-11T11:20:33.687Z,67.22
2022-09-11T11:21:33.681Z,69.01
2022-09-11T11:22:33.802Z,66.90
2022-09-11T11:23:33.779Z,67.62
2022-09-11T11:24:33.690Z,68.93
2022-09-11T11:25:33.657Z,67.91
2022-09-11T11:26:33.632Z,66.06
2022-09-11T11:27:34.629Z,63.35
2022-09-11T11:28:33.681Z,62.93
2022-09-11T11:29:34.559Z,63.79
2022-09-11T11:30:33.706Z,64.60
2022-09-11T11:31:33.754Z,62.82
2022-09-11T11:32:33.621Z,65.20
2022-09-11T11:33:33.585Z,63.92
2022-09-11T11:34:33.603Z,64.11
2022-09-11T11:35:33.573Z,66.25
2022-09-11T11:36:33.567Z,67.41
2022-09-11T11:37:33.657Z,71.74
2022-09-11T11:38:33.663Z,69.58
2022-09-11T11:39:33.597Z,68.54
2022-09-11T11:40:33.571Z,64.70
2022-09-11T11:41:34.641Z,68.48
2022-09-11T11:42:33.630Z,71.87
2022-09-11T11:43:33.506Z,73.75
2022-09-11T11:44:33.524Z,71.30
2022-09-11T11:45:33.603Z,73.48
2022-09-11T11:46:33.488Z,72.34
2022-09-11T11:47:33.569Z,69.59
2022-09-11T11:48:33.498Z,69.67
2022-09-11T11:49:33.491Z,71.30
2022-09-11T11:50:33.530Z,70.22
2022-09-11T11:51:33.444Z,70.87
2022-09-11T11:52:33.438Z,68.48
2022-09-11T11:53:33.459Z,67.69
2022-09-11T11:54:33.584Z,68.85
2022-09-11T11:55:33.498Z,69.79
2022-09-11T11:56:33.481Z,72.13
2022-09-11T11:57:33.406Z,72.51
2022-09-11T11:58:33.449Z,68.86
2022-09-11T11:59:33.647Z,72.93
2022-09-11T12:00:33.373Z,75.81
2022-09-11T12:01:33.383Z,73.46
2022-09-11T12:02:33.357Z,73.38
2022-09-11T12:03:33.506Z,73.01
2022-09-11T12:04:33.407Z,69.32
2022-09-11T12:05:33.379Z,68.22
2022-09-11T12:06:33.335Z,70.86
2022-09-11T12:07:33.322Z,71.19
2022-09-11T12:08:33.418Z,71.21
2022-09-11T12:09:34.077Z,72.24
2022-09-11T12:10:34.302Z,69.77
2022-09-11T12:11:33.281Z,75.22
2022-09-11T12:12:33.291Z,65.45
2022-09-11T12:13:33.299Z,69.79
2022-09-11T12:14:33.295Z,71.86
2022-09-11T12:15:33.263Z,69.75
2022-09-11T12:16:33.371Z,69.43
2022-09-11T12:17:33.251Z,67.60
2022-09-11T12:18:33.235Z,67.36
2022-09-11T12:19:33.381Z,71.33
2022-09-11T12:20:34.292Z,71.03
2022-09-11T12:21:33.236Z,70.94
2022-09-11T12:22:33.206Z,64.81
2022-09-11T12:23:33.215Z,67.23
2022-09-11T12:24:33.228Z,68.61
2022-09-11T12:25:33.220Z,68.66
2022-09-11T12:26:33.351Z,67.46
2022-09-11T12:27:33.161Z,69.23
2022-09-11T12:28:33.223Z,67.99
2022-09-11T12:29:33.268Z,69.83
2022-09-11T12:30:33.169Z,74.95
2022-09-11T12:31:33.196Z,72.84
2022-09-11T12:32:33.145Z,74.37
2022-09-11T12:33:33.106Z,75.81
2022-09-11T12:34:33.181Z,75.93
2022-09-11T12:35:33.148Z,81.97
2022-09-11T12:36:33.159Z,78.45
2022-09-11T12:37:33.093Z,77.14
2022-09-11T12:38:33.170Z,75.54
2022-09-11T12:39:33.289Z,76.50
2022-09-11T12:40:33.083Z,77.84
2022-09-11T12:41:33.109Z,81.32
2022-09-11T12:42:33.165Z,75.98
2022-09-11T12:43:33.107Z,77.60
2022-09-11T12:44:33.052Z,75.70
2022-09-11T12:45:33.114Z,71.47
2022-09-11T12:46:33.017Z,70.05
2022-09-11T12:47:33.002Z,67.04
2022-09-11T12:48:32.998Z,68.53
2022-09-11T12:49:33.012Z,70.58
2022-09-11T12:50:33.140Z,67.23
2022-09-11T12:51:32.981Z,68.60
2022-09-11T12:52:33.003Z,68.76